CWSW

Sparwood / Elk Valley Airport

Sparwood/Elk Valley, Canada
METAR CWSW 220100Z 22003KT 180V250 20SM -RA SCT035 BKN049 OVC080 10/07 A3007 RMK SC3SC2AS3 VRY LGT RA LAST STFD OBS/NEXT 221300Z SLP200 DENSITY ALT 4000FT
Observed Flight Rules
Sep-22 @ 01:00 UTC (7 hours ago) Visual Flight Rules
Wind Visibility Clouds Conditions
220° at 3 knots 20 miles
Temperatures Readings
Current 10°C / 50°F
Dewpoint 7°C / 45°F
Humidity 82%
Altimeter 30.07" Hg
Pressure 1020 hPa
Elevation 1138
METAR CWSW 220100Z 22003KT 180V250 20SM -RA SCT035 BKN049 OVC080 10/07 A3007 RMK SC3SC2AS3 VRY LGT RA LAST STFD OBS/NEXT 221300Z SLP200 DENSITY ALT 4000FT
Observed Flight Rules
Sep-22 @ 01:00 UTC
(7 hours ago)
VFR
Wind Visibility
220° at 3 knots 20 miles
Clouds
Conditions
Temperature Dewpoint
10°C / 50°F 7°C / 45°F
Humidity Altimeter Pressure
82% 30.07" Hg 1020 hPa